METAR Data
IDs: Format: Raw Decoded Include TAF

Data at: 1631 UTC 20 May 2022

METAR for:KHCR (Heber City Muni, UT, US)
Text:KHCR 201615Z AUTO 00000KT 10SM CLR 05/M08 A2989 RMK AO2
Temperature: 5.0°C ( 41°F)
Dewpoint: -8.0°C ( 18°F) [RH = 38%]
Pressure (altimeter):29.89 inches Hg (1012.3 mb)
Winds:calm
Visibility:10 or more sm (16+ km)
Ceiling:at least 12,000 feet AGL
Clouds:sky clear below 12,000 feet AGL
QC Flag:automated observation with no human augmentation